Time;durP1;ratioP1;P1;durP2;ratioP2;P2;SDS_P1;SDS_P2;PMS_P1;PMS_P2;Temp;Humidity;BMP_temperature;BMP_pressure;BME280_temperature;BME280_humidity;BME280_pressure;Samples;Min_cycle;Max_cycle;Signal;HPM_P1;HPM_P2
2020/12/26 00:01:46;;;;;;;110.78;52.00;;;;;;;6.89;100.00;100859.55;1844630;77;21680;-81
2020/12/26 00:04:15;;;;;;;111.10;50.95;;;;;;;6.90;100.00;100865.55;1844277;77;21208;-82
2020/12/26 00:07:10;;;;;;;101.55;47.33;;;;;;;6.87;100.00;100861.38;1844355;77;20965;-80
2020/12/26 00:09:39;;;;;;;106.50;50.08;;;;;;;6.90;100.00;100877.16;1844347;77;21042;-82
2020/12/26 00:12:08;;;;;;;98.07;47.48;;;;;;;6.91;100.00;100884.00;1844304;77;21038;-82
2020/12/26 00:14:36;;;;;;;110.20;51.05;;;;;;;6.90;100.00;100892.63;1844457;77;22123;-81
2020/12/26 00:17:04;;;;;;;113.55;51.30;;;;;;;6.91;100.00;100920.11;1844475;77;21093;-80
2020/12/26 00:19:34;;;;;;;110.50;51.77;;;;;;;6.88;100.00;100928.00;1844295;77;20991;-84
2020/12/26 00:22:01;;;;;;;113.85;50.23;;;;;;;6.87;100.00;100932.31;1844916;77;21526;-84
2020/12/26 00:24:29;;;;;;;111.77;48.63;;;;;;;6.86;100.00;100920.80;1821358;77;21208;-83
2020/12/26 00:26:57;;;;;;;106.22;47.25;;;;;;;6.86;100.00;100916.92;1844476;77;21244;-83
2020/12/26 00:29:26;;;;;;;110.32;48.68;;;;;;;6.86;100.00;100916.45;1845222;77;21003;-84
2020/12/26 00:31:54;;;;;;;108.47;47.25;;;;;;;6.87;100.00;100915.55;1846227;77;21149;-84
2020/12/26 00:34:22;;;;;;;106.72;47.75;;;;;;;6.88;100.00;100923.67;1845913;77;21050;-84
2020/12/26 00:36:50;;;;;;;104.67;46.05;;;;;;;6.87;100.00;100916.84;1845674;75;21126;-84
2020/12/26 00:39:20;;;;;;;96.60;43.73;;;;;;;6.89;100.00;100907.27;1845991;77;21220;-84
2020/12/26 00:41:50;;;;;;;104.25;45.92;;;;;;;6.90;100.00;100908.11;1845546;77;21181;-82
2020/12/26 00:44:17;;;;;;;104.58;45.92;;;;;;;6.91;100.00;100915.80;1844607;77;21740;-82
2020/12/26 00:46:47;;;;;;;100.67;43.63;;;;;;;6.90;100.00;100912.82;1846869;77;21069;-82
2020/12/26 00:49:16;;;;;;;103.50;44.85;;;;;;;6.92;100.00;100914.05;1847195;77;21175;-84
2020/12/26 00:51:48;;;;;;;106.35;44.80;;;;;;;6.92;100.00;100914.86;1846359;77;21182;-84
2020/12/26 00:54:17;;;;;;;100.02;42.98;;;;;;;6.93;100.00;100907.97;1845249;77;21062;-84
2020/12/26 00:56:44;;;;;;;99.30;40.80;;;;;;;6.93;100.00;100907.52;1845561;77;21118;-84
2020/12/26 00:59:13;;;;;;;109.12;43.78;;;;;;;6.96;100.00;100905.69;1845239;77;21564;-84
2020/12/26 01:01:41;;;;;;;96.95;41.88;;;;;;;6.99;100.00;100899.94;1847556;77;21117;-83
2020/12/26 01:04:11;;;;;;;110.17;44.05;;;;;;;7.01;100.00;100916.64;1847532;77;21191;-85
2020/12/26 01:06:40;;;;;;;103.85;42.95;;;;;;;7.03;100.00;100919.98;1846065;77;21375;-82
2020/12/26 01:09:08;;;;;;;97.85;43.17;;;;;;;7.03;100.00;100914.82;1845714;77;20912;-83
2020/12/26 01:11:42;;;;;;;103.58;45.08;;;;;;;7.02;100.00;100910.59;1845389;77;21050;-83
2020/12/26 01:14:13;;;;;;;91.15;39.90;;;;;;;7.02;100.00;100912.69;1846149;77;21216;-84
2020/12/26 01:19:32;;;;;;;98.47;44.10;;;;;;;7.06;100.00;100916.80;1820884;77;22705;-83
2020/12/26 01:22:00;;;;;;;87.20;40.65;;;;;;;7.03;100.00;100919.98;1757759;81;21010;-80
2020/12/26 01:24:28;;;;;;;72.40;37.90;;;;;;;7.01;100.00;100920.07;1768493;80;21279;-83
2020/12/26 01:26:56;;;;;;;71.55;37.28;;;;;;;7.02;100.00;100924.78;1756903;81;21132;-85
2020/12/26 01:29:24;;;;;;;70.65;36.00;;;;;;;7.00;100.00;100927.42;1765955;81;21002;-81
2020/12/26 01:31:52;;;;;;;65.70;33.50;;;;;;;6.99;100.00;100936.05;1756330;81;21053;-79
2020/12/26 01:34:20;;;;;;;60.30;32.80;;;;;;;6.99;100.00;100934.77;1766370;81;21619;-81
2020/12/26 01:36:53;;;;;;;53.45;29.87;;;;;;;6.98;100.00;100939.56;1757403;81;21403;-84
2020/12/26 01:39:22;;;;;;;49.40;28.02;;;;;;;6.98;100.00;100938.27;1766108;81;21005;-81
2020/12/26 01:41:51;;;;;;;46.70;26.77;;;;;;;7.01;100.00;100930.39;1756515;81;21065;-82
2020/12/26 01:44:20;;;;;;;51.73;27.62;;;;;;;7.02;100.00;100926.88;1766970;81;21025;-80
2020/12/26 01:46:50;;;;;;;48.05;25.23;;;;;;;7.01;100.00;100914.91;1756767;81;21160;-83
2020/12/26 01:49:20;;;;;;;45.67;25.05;;;;;;;7.03;100.00;100917.40;1765767;81;21104;-79
2020/12/26 01:51:48;;;;;;;38.55;23.45;;;;;;;7.04;100.00;100925.53;1756381;81;21037;-82
2020/12/26 01:54:16;;;;;;;39.95;24.07;;;;;;;7.02;100.00;100928.66;1766194;81;21041;-82
2020/12/26 01:56:45;;;;;;;37.38;22.73;;;;;;;7.02;100.00;100923.01;1755957;81;20962;-82
2020/12/26 01:59:14;;;;;;;38.63;22.30;;;;;;;7.01;100.00;100929.09;1765900;81;21075;-80
2020/12/26 02:01:42;;;;;;;35.45;23.07;;;;;;;7.00;100.00;100933.87;1756390;81;21567;-80
2020/12/26 02:04:11;;;;;;;35.92;21.62;;;;;;;7.01;100.00;100934.26;1765976;81;21009;-80
2020/12/26 02:06:51;;;;;;;35.78;22.00;;;;;;;7.02;100.00;100935.10;1756501;81;20998;-81
2020/12/26 02:09:18;;;;;;;36.45;20.30;;;;;;;7.02;100.00;100927.36;1767036;81;21049;-84
2020/12/26 02:11:48;;;;;;;34.05;20.92;;;;;;;7.03;100.00;100919.98;1756264;81;21610;-82
2020/12/26 02:14:16;;;;;;;48.68;24.92;;;;;;;7.02;100.00;100911.40;1766481;81;21710;-82
2020/12/26 02:16:49;;;;;;;46.70;23.35;;;;;;;7.04;100.00;100925.53;1756240;81;21543;-81
2020/12/26 02:19:23;;;;;;;34.03;20.35;;;;;;;7.01;100.00;100937.29;1748742;81;21113;-85
2020/12/26 02:21:51;;;;;;;29.05;19.20;;;;;;;7.00;100.00;100940.32;1743694;82;21169;-80
2020/12/26 02:24:19;;;;;;;28.90;18.23;;;;;;;6.98;100.00;100933.56;1732255;82;21155;-83
2020/12/26 02:26:48;;;;;;;31.25;18.05;;;;;;;6.98;100.00;100936.14;1743769;82;21374;-83
2020/12/26 02:29:16;;;;;;;41.05;20.97;;;;;;;6.99;100.00;100937.34;1731746;82;21197;-85
2020/12/26 02:31:44;;;;;;;35.48;20.48;;;;;;;7.01;100.00;100943.29;1743237;82;21481;-84
2020/12/26 02:34:12;;;;;;;26.37;16.48;;;;;;;7.04;100.00;100948.75;1730953;83;21124;-83
2020/12/26 02:36:40;;;;;;;21.73;14.53;;;;;;;7.04;100.00;100959.92;1742225;82;21569;-83
2020/12/26 02:39:08;;;;;;;21.02;12.75;;;;;;;7.03;100.00;100958.23;1730754;83;22184;-83
2020/12/26 02:41:38;;;;;;;19.95;11.53;;;;;;;7.04;100.00;100962.50;1742393;82;20963;-82
2020/12/26 02:44:06;;;;;;;14.65;10.53;;;;;;;7.04;100.00;100960.37;1730704;83;20954;-84
2020/12/26 02:46:35;;;;;;;15.70;10.00;;;;;;;7.04;100.00;100951.33;1742625;82;21565;-80
2020/12/26 02:49:03;;;;;;;28.75;15.55;;;;;;;7.05;100.00;100943.50;1731273;83;21104;-85
2020/12/26 02:51:34;;;;;;;33.88;14.95;;;;;;;7.06;100.00;100943.05;1741996;82;21417;-80
2020/12/26 02:54:02;;;;;;;17.75;10.85;;;;;;;7.07;100.00;100958.48;1704696;83;21620;-82
2020/12/26 02:56:31;;;;;;;23.42;12.30;;;;;;;7.10;100.00;100970.40;1742485;82;21608;-80
2020/12/26 02:58:59;;;;;;;23.12;13.00;;;;;;;7.13;100.00;100965.09;1730766;83;21638;-85
2020/12/26 03:01:27;;;;;;;16.00;9.38;;;;;;;7.13;100.00;100963.35;1742136;82;21810;-83
2020/12/26 03:03:56;;;;;;;23.73;12.37;;;;;;;7.13;100.00;100969.80;1731165;83;21375;-85
2020/12/26 03:06:24;;;;;;;19.62;10.50;;;;;;;7.13;100.00;100975.41;1742583;82;21059;-81
2020/12/26 03:08:51;;;;;;;14.50;9.10;;;;;;;7.12;100.00;100971.16;1731140;83;21008;-82
2020/12/26 03:11:22;;;;;;;12.40;8.70;;;;;;;7.11;100.00;100949.70;1760864;81;21146;-84
2020/12/26 03:13:50;;;;;;;14.38;8.35;;;;;;;7.10;100.00;100951.05;1741908;82;21615;-86
2020/12/26 03:16:21;;;;;;;8.73;6.50;;;;;;;7.09;100.00;100946.33;1730512;83;21377;-79
2020/12/26 03:18:49;;;;;;;9.23;6.35;;;;;;;7.07;100.00;100946.88;1741594;82;21066;-80
2020/12/26 03:21:18;;;;;;;7.42;5.80;;;;;;;7.07;100.00;100952.48;1731155;83;21159;-83
2020/12/26 03:23:46;;;;;;;8.98;6.20;;;;;;;7.09;100.00;100970.01;1742633;82;20888;-81
2020/12/26 03:26:14;;;;;;;12.20;6.60;;;;;;;7.09;100.00;100973.88;1730999;83;21238;-82
2020/12/26 03:28:42;;;;;;;15.78;7.97;;;;;;;7.09;100.00;100981.17;1742342;82;21199;-84
2020/12/26 03:31:12;;;;;;;9.25;6.28;;;;;;;7.09;100.00;100981.17;1731112;83;21013;-86
2020/12/26 03:33:40;;;;;;;7.67;6.03;;;;;;;7.09;100.00;100982.91;1742788;82;21141;-86
2020/12/26 03:36:10;;;;;;;7.75;5.28;;;;;;;7.07;100.00;100988.16;1730869;82;21143;-85
2020/12/26 03:38:38;;;;;;;8.25;5.37;;;;;;;7.05;100.00;100988.66;1742721;82;21160;-85
2020/12/26 03:41:06;;;;;;;9.58;6.30;;;;;;;7.01;100.00;100985.02;1730819;83;21205;-82
2020/12/26 03:43:34;;;;;;;7.03;5.10;;;;;;;6.97;100.00;100997.67;1742396;82;21066;-83
2020/12/26 03:46:02;;;;;;;6.22;5.12;;;;;;;6.92;100.00;100996.61;1731275;83;21056;-83
2020/12/26 03:48:31;;;;;;;8.65;5.28;;;;;;;6.90;100.00;100991.95;1742091;82;21121;-84
2020/12/26 03:50:59;;;;;;;16.77;8.70;;;;;;;6.87;100.00;100993.38;1731633;83;21060;-81
2020/12/26 03:53:27;;;;;;;18.90;9.88;;;;;;;6.85;100.00;100997.34;1742734;82;22194;-85
2020/12/26 03:55:54;;;;;;;13.35;8.35;;;;;;;6.82;100.00;101003.09;1730924;83;20993;-84
2020/12/26 03:58:22;;;;;;;12.65;7.25;;;;;;;6.79;100.00;101013.55;1742346;82;21089;-85
2020/12/26 04:00:50;;;;;;;13.22;8.10;;;;;;;6.76;100.00;101025.29;1730991;83;21635;-87
2020/12/26 04:03:18;;;;;;;13.18;7.80;;;;;;;6.75;100.00;101041.21;1742129;82;21227;-84
2020/12/26 04:05:46;;;;;;;8.50;5.40;;;;;;;6.75;100.00;101048.11;1731186;83;21372;-88
2020/12/26 04:08:15;;;;;;;8.28;5.97;;;;;;;6.74;100.00;101059.31;1742242;82;20999;-85
2020/12/26 04:10:44;;;;;;;7.83;5.60;;;;;;;6.72;100.00;101062.42;1731056;83;21033;-83
2020/12/26 04:13:14;;;;;;;9.08;6.12;;;;;;;6.70;100.00;101062.48;1742163;82;21074;-85
2020/12/26 04:15:43;;;;;;;7.55;5.20;;;;;;;6.71;100.00;101063.32;1731167;83;21147;-84
2020/12/26 04:18:10;;;;;;;7.17;5.20;;;;;;;6.70;100.00;101071.50;1743071;82;22085;-82
2020/12/26 04:20:39;;;;;;;7.72;5.55;;;;;;;6.69;100.00;101071.14;1745236;82;21263;-83
2020/12/26 04:23:07;;;;;;;7.58;5.40;;;;;;;6.69;100.00;101067.72;1752753;82;21521;-84
2020/12/26 04:25:35;;;;;;;10.35;6.45;;;;;;;6.68;100.00;101066.03;1745341;82;21153;-83
2020/12/26 04:28:06;;;;;;;9.35;6.83;;;;;;;6.68;100.00;101055.72;1723802;82;21211;-86
2020/12/26 04:30:34;;;;;;;24.12;10.43;;;;;;;6.67;100.00;101056.64;1745256;82;21204;-84
2020/12/26 04:33:04;;;;;;;17.60;7.80;;;;;;;6.68;100.00;101077.19;1752177;82;21157;-86
2020/12/26 04:35:32;;;;;;;9.70;7.67;;;;;;;6.69;100.00;101088.35;1744558;82;21042;-82
2020/12/26 04:38:00;;;;;;;8.75;7.85;;;;;;;6.62;100.00;101085.20;1751405;82;21073;-85
2020/12/26 04:40:28;;;;;;;9.70;8.15;;;;;;;6.51;100.00;101081.41;1745093;82;21081;-82
2020/12/26 04:42:56;;;;;;;9.50;7.55;;;;;;;6.38;100.00;101079.33;1751322;82;21203;-83
2020/12/26 04:45:25;;;;;;;8.00;7.20;;;;;;;6.31;100.00;101074.52;1744776;82;21124;-81
2020/12/26 04:47:57;;;;;;;8.30;7.10;;;;;;;6.22;100.00;101082.63;1751437;82;21204;-79
2020/12/26 04:50:28;;;;;;;9.47;7.17;;;;;;;6.15;100.00;101089.78;1745015;82;20927;-85
2020/12/26 04:52:59;;;;;;;7.20;6.47;;;;;;;6.11;100.00;101092.08;1752054;82;20994;-86
2020/12/26 04:55:30;;;;;;;8.78;7.35;;;;;;;6.07;100.00;101097.41;1744712;82;21368;-79
2020/12/26 04:58:09;;;;;;;7.33;6.53;;;;;;;6.02;100.00;101106.62;1728947;83;21208;-82
2020/12/26 05:00:39;;;;;;;7.55;6.78;;;;;;;6.00;100.00;101110.98;1751650;82;20939;-80
2020/12/26 05:03:10;;;;;;;7.12;6.42;;;;;;;6.00;100.00;101123.86;1744425;81;21167;-83
2020/12/26 05:05:42;;;;;;;7.00;6.30;;;;;;;5.99;100.00;101127.80;1751693;82;21069;-82
2020/12/26 05:08:14;;;;;;;6.35;5.75;;;;;;;5.91;100.00;101143.55;1744663;82;21588;-80
2020/12/26 05:10:43;;;;;;;5.80;5.22;;;;;;;5.79;100.00;101155.59;1751276;82;21176;-78
2020/12/26 05:13:12;;;;;;;5.33;4.83;;;;;;;5.68;100.00;101164.19;1744352;82;21089;-81
2020/12/26 05:15:40;;;;;;;4.53;4.12;;;;;;;5.58;100.00;101168.00;1751436;82;21029;-83
2020/12/26 05:18:08;;;;;;;5.33;4.83;;;;;;;5.47;100.00;101170.95;1744595;82;20998;-81
2020/12/26 05:20:36;;;;;;;5.87;5.28;;;;;;;5.39;100.00;101170.86;1743091;82;21207;-79
2020/12/26 05:23:17;;;;;;;6.90;5.53;;;;;;;5.30;100.00;101185.72;1730330;83;20950;-85
2020/12/26 05:25:58;;;;;;;8.90;6.35;;;;;;;5.31;100.00;101193.00;1954693;73;22624;-80
2020/12/26 05:28:27;;;;;;;8.55;6.17;;;;;;;5.28;100.00;101185.39;1920884;74;21614;-76
2020/12/26 05:30:55;;;;;;;6.37;5.58;;;;;;;5.32;100.00;101178.80;1920640;74;21166;-76
2020/12/26 05:33:23;;;;;;;7.15;5.67;;;;;;;5.37;100.00;101191.48;1920569;74;20925;-81
2020/12/26 05:35:53;;;;;;;7.30;5.87;;;;;;;5.39;100.00;101202.59;1920583;74;20894;-80
2020/12/26 05:38:25;;;;;;;6.90;5.60;;;;;;;5.42;100.00;101190.89;1920349;74;20894;-78
2020/12/26 05:40:56;;;;;;;6.72;5.92;;;;;;;5.43;100.00;101196.41;1921001;74;21594;-81
2020/12/26 05:43:27;;;;;;;9.48;6.05;;;;;;;5.38;100.00;101213.77;1920588;74;21133;-80
2020/12/26 05:45:55;;;;;;;7.70;6.45;;;;;;;5.27;100.00;101223.14;1920887;74;21011;-82
2020/12/26 05:48:27;;;;;;;8.33;5.87;;;;;;;5.23;100.00;101234.90;1920771;74;20902;-77
2020/12/26 05:50:59;;;;;;;6.97;5.67;;;;;;;5.19;100.00;101234.61;1920451;74;21119;-80
2020/12/26 05:53:28;;;;;;;;;;;;;;;5.15;100.00;101239.02;1923943;74;21023;-81
2020/12/26 05:55:56;;;;;;;18.42;10.10;;;;;;;5.15;100.00;101259.59;1920743;74;21224;-79
2020/12/26 05:58:26;;;;;;;20.90;11.45;;;;;;;5.12;100.00;101261.42;1920581;74;21031;-83
2020/12/26 06:00:59;;;;;;;7.80;6.60;;;;;;;5.07;100.00;101272.33;1920756;74;21015;-75
2020/12/26 06:03:33;;;;;;;13.62;7.67;;;;;;;5.01;100.00;101262.25;1889229;74;21055;-82
2020/12/26 06:06:05;;;;;;;8.43;6.22;;;;;;;4.99;100.00;101266.14;1920828;74;20972;-82
2020/12/26 06:08:33;;;;;;;6.65;5.58;;;;;;;4.97;100.00;101274.37;1921112;74;22172;-79
2020/12/26 06:11:04;;;;;;;6.33;5.65;;;;;;;4.95;100.00;101282.56;1920828;74;21726;-82
2020/12/26 06:13:34;;;;;;;6.50;5.90;;;;;;;4.88;100.00;101286.25;1921001;74;21445;-86
2020/12/26 06:16:20;;;;;;;6.33;5.72;;;;;;;4.81;100.00;101277.05;1920570;74;20977;-76
2020/12/26 06:18:59;;;;;;;6.05;5.30;;;;;;;4.79;100.00;101295.52;1920555;74;20961;-78
2020/12/26 06:21:27;;;;;;;8.20;6.33;;;;;;;4.77;100.00;101291.73;1920530;74;21511;-79
2020/12/26 06:23:55;;;;;;;8.55;5.95;;;;;;;4.77;100.00;101296.02;1920138;74;21166;-77
2020/12/26 06:26:23;;;;;;;6.87;5.35;;;;;;;4.76;100.00;101305.46;1920301;74;21016;-84
2020/12/26 06:28:51;;;;;;;6.45;5.67;;;;;;;4.74;100.00;101314.13;1888018;74;20976;-78
2020/12/26 06:31:19;;;;;;;6.95;6.20;;;;;;;4.71;100.00;101324.06;1920669;74;21020;-86
2020/12/26 06:33:52;;;;;;;6.25;5.65;;;;;;;4.74;100.00;101323.97;1920407;74;21589;-79
2020/12/26 06:36:19;;;;;;;8.30;6.55;;;;;;;4.71;100.00;101324.06;1919630;74;20969;-77
2020/12/26 06:38:47;;;;;;;8.10;6.00;;;;;;;4.69;100.00;101333.53;1920140;74;21526;-77
2020/12/26 06:41:18;;;;;;;7.83;6.03;;;;;;;4.66;100.00;101340.05;1919756;74;21016;-79
2020/12/26 06:43:55;;;;;;;7.55;6.60;;;;;;;4.64;100.00;101346.98;1920051;74;21475;-76
2020/12/26 06:46:28;;;;;;;9.95;6.85;;;;;;;4.64;100.00;101343.13;1919849;74;22113;-78
2020/12/26 06:48:57;;;;;;;8.03;6.55;;;;;;;4.65;100.00;101337.55;1919758;74;21008;-77
2020/12/26 06:51:37;;;;;;;8.58;6.92;;;;;;;4.65;100.00;101334.54;1919698;74;21780;-76
2020/12/26 06:54:07;;;;;;;9.15;6.70;;;;;;;4.64;100.00;101334.58;1919121;74;21008;-83
2020/12/26 06:56:45;;;;;;;8.55;7.20;;;;;;;4.62;100.00;101333.35;1897858;74;21071;-79
2020/12/26 06:59:14;;;;;;;6.60;5.75;;;;;;;4.62;100.00;101329.50;1883838;75;21622;-77
2020/12/26 07:01:46;;;;;;;6.33;5.70;;;;;;;4.64;100.00;101329.43;1883603;76;21055;-81
2020/12/26 07:04:17;;;;;;;7.00;5.60;;;;;;;4.66;100.00;101334.07;1883977;76;21213;-77
2020/12/26 07:06:55;;;;;;;9.68;6.42;;;;;;;4.65;100.00;101339.68;1884219;76;21051;-79
2020/12/26 07:09:47;;;;;;;7.60;6.00;;;;;;;4.63;100.00;101340.16;1884155;76;21625;-77
2020/12/26 07:12:15;;;;;;;6.92;5.47;;;;;;;4.60;100.00;101334.27;1883818;76;21171;-80
2020/12/26 07:14:45;;;;;;;5.58;4.97;;;;;;;4.58;100.00;101339.91;1883782;76;20917;-79
2020/12/26 07:17:21;;;;;;;6.17;5.05;;;;;;;4.53;100.00;101340.50;1883344;76;21616;-76
2020/12/26 07:19:51;;;;;;;7.50;5.40;;;;;;;4.52;100.00;101338.37;1883839;76;21047;-79
2020/12/26 07:22:27;;;;;;;7.70;5.25;;;;;;;4.55;100.00;101347.27;1883708;76;21020;-80
2020/12/26 07:25:07;;;;;;;6.10;4.85;;;;;;;4.54;100.00;101357.14;1883595;76;21178;-77
2020/12/26 07:27:37;;;;;;;5.90;4.65;;;;;;;4.53;100.00;101364.92;1883625;75;21150;-76
2020/12/26 07:30:15;;;;;;;5.08;4.58;;;;;;;4.54;100.00;101383.28;1884026;76;21622;-78
2020/12/26 07:32:55;;;;;;;6.30;4.97;;;;;;;4.52;100.00;101369.21;1884807;76;20964;-77
2020/12/26 07:35:31;;;;;;;5.20;4.70;;;;;;;4.51;100.00;101378.23;1884611;76;20948;-80
2020/12/26 07:38:13;;;;;;;5.47;4.85;;;;;;;4.52;100.00;101382.50;1884191;76;21526;-77
2020/12/26 07:40:44;;;;;;;5.08;4.50;;;;;;;4.56;100.00;101395.20;1885389;76;26526;-79
2020/12/26 07:43:14;;;;;;;5.40;4.03;;;;;;;4.57;100.00;101391.75;1884979;76;20972;-78
2020/12/26 07:45:44;;;;;;;4.50;4.10;;;;;;;4.58;100.00;101397.30;1884392;76;20956;-78
2020/12/26 07:48:12;;;;;;;4.40;4.00;;;;;;;4.57;100.00;101400.75;1884774;76;20901;-77
2020/12/26 07:50:42;;;;;;;4.55;4.15;;;;;;;4.59;100.00;101402.84;1885180;76;21546;-79
2020/12/26 07:53:13;;;;;;;5.22;4.03;;;;;;;4.57;100.00;101399.90;1884347;76;21071;-78
2020/12/26 07:55:40;;;;;;;6.03;3.65;;;;;;;4.57;100.00;101405.89;1884522;76;20912;-81
2020/12/26 07:58:12;;;;;;;5.25;4.55;;;;;;;4.59;100.00;101409.71;1884155;76;20980;-80
2020/12/26 08:00:41;;;;;;;5.12;4.62;;;;;;;4.61;100.00;101409.21;1852849;76;21467;-78
2020/12/26 08:03:12;;;;;;;3.85;3.27;;;;;;;4.60;100.00;101408.80;1883830;76;21173;-78
2020/12/26 08:05:48;;;;;;;3.80;3.35;;;;;;;4.60;100.00;101415.23;1883982;76;21570;-77
2020/12/26 08:08:24;;;;;;;4.47;4.08;;;;;;;4.61;100.00;101416.48;1884022;76;20980;-79
2020/12/26 08:10:58;;;;;;;6.33;3.77;;;;;;;4.64;100.00;101412.97;1883669;76;21118;-78
2020/12/26 08:13:29;;;;;;;3.17;2.75;;;;;;;4.70;100.00;101416.65;1884021;76;21063;-82
2020/12/26 08:16:03;;;;;;;2.72;2.50;;;;;;;4.77;99.18;101425.87;1883717;76;21863;-77
2020/12/26 08:18:33;;;;;;;2.70;2.40;;;;;;;4.77;98.41;101419.00;1884127;76;20905;-80
2020/12/26 08:21:01;;;;;;;3.42;2.70;;;;;;;4.76;97.62;101425.02;1852596;76;21047;-82
2020/12/26 08:23:28;;;;;;;2.50;2.25;;;;;;;4.77;97.68;101420.28;1884217;76;21495;-83
2020/12/26 08:26:03;;;;;;;5.28;3.25;;;;;;;4.85;97.78;101420.03;1883798;76;21700;-80
2020/12/26 08:28:31;;;;;;;5.12;3.42;;;;;;;4.93;97.50;101412.95;1883836;76;21174;-82
2020/12/26 08:31:02;;;;;;;5.83;3.47;;;;;;;4.98;97.00;101422.63;1883730;76;21547;-81
2020/12/26 08:33:35;;;;;;;5.50;3.33;;;;;;;5.05;97.16;101427.14;1853568;76;21027;-81
2020/12/26 08:36:15;;;;;;;3.62;2.90;;;;;;;5.11;96.83;101425.23;1884229;76;21440;-80
2020/12/26 08:38:50;;;;;;;3.65;2.87;;;;;;;5.14;96.51;101423.84;1883818;76;21420;-82
2020/12/26 08:41:17;;;;;;;10.88;5.53;;;;;;;5.22;96.54;101433.91;1883853;76;21168;-82
2020/12/26 08:43:46;;;;;;;7.10;4.60;;;;;;;5.23;95.68;101428.69;1883577;75;21126;-82
2020/12/26 08:46:18;;;;;;;7.97;3.70;;;;;;;5.19;95.06;101433.56;1883562;76;21027;-81
2020/12/26 08:48:46;;;;;;;4.67;3.60;;;;;;;5.20;95.29;101421.07;1883602;76;21560;-79
2020/12/26 08:51:22;;;;;;;5.97;4.00;;;;;;;5.28;95.33;101431.98;1883535;76;21023;-81
2020/12/26 08:53:51;;;;;;;5.22;4.05;;;;;;;5.34;94.30;101442.52;1883770;76;21182;-81
2020/12/26 08:56:36;;;;;;;6.78;4.53;;;;;;;5.39;94.02;101457.82;1883826;76;21012;-81
2020/12/26 08:59:04;;;;;;;6.05;4.17;;;;;;;5.45;94.09;101453.77;1883767;76;21582;-81
2020/12/26 09:01:32;;;;;;;4.15;3.17;;;;;;;5.49;94.30;101448.92;1884094;76;20968;-80
2020/12/26 09:04:00;;;;;;;5.90;3.12;;;;;;;5.53;94.21;101437.61;1884288;76;20996;-83
2020/12/26 09:06:38;;;;;;;4.62;3.37;;;;;;;5.56;93.76;101447.36;1883983;76;21229;-82
2020/12/26 09:09:23;;;;;;;6.75;3.85;;;;;;;5.53;92.71;101440.18;1884248;76;21048;-81
2020/12/26 09:12:04;;;;;;;5.35;3.33;;;;;;;5.50;92.11;101435.14;1883896;75;20909;-84
2020/12/26 09:14:32;;;;;;;8.38;5.55;;;;;;;5.44;91.07;101437.47;1884286;76;21803;-82
2020/12/26 09:17:01;;;;;;;72.15;38.25;;;;;;;5.37;90.78;101442.85;1883580;76;20901;-81
2020/12/26 09:19:47;;;;;;;14.80;9.23;;;;;;;5.34;91.11;101435.64;1884104;76;21180;-82
2020/12/26 09:22:15;;;;;;;13.22;7.87;;;;;;;5.27;90.39;101443.59;1883803;76;21004;-82
2020/12/26 09:24:44;;;;;;;9.08;7.67;;;;;;;5.17;90.58;101471.34;1883522;76;20897;-83
2020/12/26 09:27:19;;;;;;;6.40;4.10;;;;;;;5.15;91.16;101468.42;1881252;74;21049;-83
2020/12/26 09:29:51;;;;;;;3.87;3.10;;;;;;;5.16;91.66;101469.68;1881416;76;21158;-82
2020/12/26 09:32:19;;;;;;;6.62;3.80;;;;;;;5.22;91.85;101468.20;1882311;76;22077;-84
2020/12/26 09:34:46;;;;;;;30.37;20.45;;;;;;;5.26;91.98;101454.80;1881684;76;21673;-83
2020/12/26 09:37:18;;;;;;;23.22;16.93;;;;;;;5.25;91.44;101462.95;1882001;76;21076;-84
2020/12/26 09:39:46;;;;;;;9.95;6.67;;;;;;;5.25;91.34;101469.83;1855847;76;21000;-82
2020/12/26 09:42:14;;;;;;;8.35;5.05;;;;;;;5.23;91.11;101473.72;1881449;76;21092;-83
2020/12/26 09:44:43;;;;;;;6.70;4.25;;;;;;;5.23;91.06;101481.44;1881535;76;21180;-82
2020/12/26 09:47:10;;;;;;;5.92;3.98;;;;;;;5.23;91.14;101485.77;1881279;76;21170;-81
2020/12/26 09:49:38;;;;;;;6.35;3.72;;;;;;;5.24;91.24;101484.42;1881585;76;20969;-83
2020/12/26 09:52:06;;;;;;;5.50;3.80;;;;;;;5.30;91.50;101479.52;1881166;76;20948;-81
2020/12/26 09:54:36;;;;;;;4.85;3.10;;;;;;;5.29;91.37;101470.98;1881140;76;21131;-84
2020/12/26 09:57:23;;;;;;;4.87;3.95;;;;;;;5.29;91.09;101473.56;1861631;76;20992;-82
2020/12/26 09:59:53;;;;;;;5.67;4.00;;;;;;;5.24;90.48;101471.55;1881365;76;21608;-84
2020/12/26 10:02:22;;;;;;;5.03;3.35;;;;;;;5.24;90.37;101468.98;1881247;76;21154;-82
2020/12/26 10:04:52;;;;;;;4.53;2.90;;;;;;;5.25;90.21;101473.25;1881338;76;21602;-82
2020/12/26 10:07:20;;;;;;;3.75;2.92;;;;;;;5.28;90.04;101462.02;1881305;76;21134;-82
2020/12/26 10:09:48;;;;;;;3.75;2.70;;;;;;;5.29;89.50;101456.83;1882299;76;21243;-84
2020/12/26 10:12:17;;;;;;;3.85;2.58;;;;;;;5.28;89.54;101464.14;1881772;76;20973;-80
2020/12/26 10:14:46;;;;;;;5.35;3.92;;;;;;;5.25;89.27;101474.53;1881452;76;21071;-82
2020/12/26 10:17:14;;;;;;;8.23;4.60;;;;;;;5.22;89.27;101474.63;1882125;76;21805;-82
2020/12/26 10:19:42;;;;;;;6.90;5.17;;;;;;;5.18;89.49;101480.75;1881690;76;21004;-84
2020/12/26 10:22:10;;;;;;;8.10;4.33;;;;;;;5.17;89.80;101479.06;1881953;76;21180;-84
2020/12/26 10:24:39;;;;;;;4.75;3.58;;;;;;;5.17;89.65;101478.24;1881671;76;21578;-82
2020/12/26 10:27:07;;;;;;;3.52;3.17;;;;;;;5.11;89.39;101476.67;1883145;75;21522;-84
2020/12/26 10:29:34;;;;;;;5.62;4.03;;;;;;;5.10;89.62;101476.30;1884007;76;21000;-81
